Terminal Aerodrome Forecast
Issued by NWS

Home | Current Version | Previous Version | Text Only | Print | Product List | Glossary On
Versions: 1 2 3 4 5 6 7 8 9 10 11 12 13 14
000
FTUS42 TJSJ 290500
TAFJBQ
TAF
TJBQ 290530Z 2906/3006 VRB04KT P6SM SCT035
     FM291400 06013KT P6SM SCT025 SCT040
     FM292300 09008KT P6SM SCT025
      AMD NOT SKED TIL 291100=

USA.gov is the U.S. government's official web portal to all federal, state and local government web resources and services.